createdAt,value
2019-02-23T00:02:27.817Z,7.10
2019-02-23T00:07:30.510Z,7.19
2019-02-23T00:12:33.209Z,7.34
2019-02-23T00:17:35.894Z,7.29
2019-02-23T00:22:38.601Z,7.41
2019-02-23T00:27:41.342Z,7.47
2019-02-23T00:32:44.007Z,7.25
2019-02-23T00:37:46.743Z,6.98
2019-02-23T00:42:49.419Z,6.91
2019-02-23T00:47:52.109Z,6.81
2019-02-23T00:52:54.822Z,6.63
2019-02-23T00:57:57.507Z,6.40
2019-02-23T01:03:00.214Z,6.23
2019-02-23T01:08:02.894Z,6.10
2019-02-23T01:13:05.577Z,5.98
2019-02-23T01:18:08.275Z,6.06
2019-02-23T01:23:10.972Z,6.16
2019-02-23T01:28:13.686Z,6.23
2019-02-23T01:33:16.364Z,6.18
2019-02-23T01:38:19.052Z,6.08
2019-02-23T01:43:21.735Z,6.10
2019-02-23T01:48:24.408Z,6.14
2019-02-23T01:53:27.134Z,6.12
2019-02-23T01:58:29.826Z,6.04
2019-02-23T02:03:32.532Z,6.01
2019-02-23T02:08:36.037Z,5.97
2019-02-23T02:13:38.902Z,5.91
2019-02-23T02:18:41.596Z,5.88
2019-02-23T02:23:44.273Z,5.85
2019-02-23T02:28:47.055Z,5.81
2019-02-23T02:34:12.766Z,5.79
2019-02-23T02:39:15.795Z,5.84
2019-02-23T02:44:18.486Z,5.81
2019-02-23T02:49:21.167Z,5.75
2019-02-23T02:54:23.893Z,5.74
2019-02-23T02:59:26.575Z,5.54
2019-02-23T03:04:29.270Z,5.51
2019-02-23T03:09:31.975Z,5.39
2019-02-23T03:14:34.674Z,5.26
2019-02-23T03:19:37.481Z,4.98
2019-02-23T03:24:40.179Z,4.83
2019-02-23T03:29:42.911Z,4.85
2019-02-23T03:34:45.607Z,4.81
2019-02-23T03:39:48.336Z,4.79
2019-02-23T03:44:51.030Z,4.86
2019-02-23T03:49:53.717Z,4.73
2019-02-23T03:54:56.412Z,4.67
2019-02-23T03:59:59.117Z,4.60
2019-02-23T04:05:01.822Z,4.42
2019-02-23T04:10:04.855Z,4.42
2019-02-23T04:15:07.704Z,4.29
2019-02-23T04:20:10.409Z,4.35
2019-02-23T04:25:13.151Z,4.21
2019-02-23T04:30:15.860Z,4.37
2019-02-23T04:35:18.563Z,4.51
2019-02-23T04:40:21.256Z,4.25
2019-02-23T04:45:23.954Z,4.09
2019-02-23T04:50:26.682Z,4.01
2019-02-23T04:55:29.390Z,3.95
2019-02-23T05:00:32.078Z,4.05
2019-02-23T05:05:34.790Z,3.99
2019-02-23T05:10:37.500Z,4.05
2019-02-23T05:15:40.195Z,3.92
2019-02-23T05:20:42.917Z,3.95
2019-02-23T05:25:45.673Z,3.93
2019-02-23T05:30:48.381Z,3.95
2019-02-23T05:35:51.121Z,3.90
2019-02-23T05:40:53.803Z,3.87
2019-02-23T05:45:56.512Z,3.98
2019-02-23T05:50:59.214Z,4.03
2019-02-23T05:56:02.012Z,3.97
2019-02-23T06:01:04.731Z,3.93
2019-02-23T06:06:25.238Z,3.99
2019-02-23T06:11:27.988Z,3.94
2019-02-23T06:16:30.868Z,4.03
2019-02-23T06:21:33.726Z,4.08
2019-02-23T06:26:37.785Z,4.12
2019-02-23T06:31:40.499Z,4.00
2019-02-23T06:36:43.549Z,3.93
2019-02-23T06:41:46.445Z,3.75
2019-02-23T06:46:49.519Z,3.82
2019-02-23T06:52:03.470Z,3.77
2019-02-23T06:56:57.000Z,3.79
2019-02-23T07:01:59.722Z,3.80
2019-02-23T07:07:02.423Z,3.94
2019-02-23T07:12:05.350Z,4.12
2019-02-23T07:17:08.598Z,4.30
2019-02-23T07:22:15.639Z,4.46
2019-02-23T07:27:16.125Z,4.59
2019-02-23T07:32:21.363Z,4.72
2019-02-23T07:37:25.673Z,4.75
2019-02-23T07:42:28.383Z,4.95
2019-02-23T07:47:31.250Z,5.13
2019-02-23T07:52:33.974Z,5.23
2019-02-23T08:02:53.398Z,5.51
2019-02-23T08:07:57.441Z,5.59
2019-02-23T08:13:12.999Z,5.72
2019-02-23T08:18:16.046Z,5.86
2019-02-23T08:23:18.802Z,6.03
2019-02-23T08:28:21.627Z,5.84
2019-02-23T08:33:24.392Z,5.99
2019-02-23T08:38:46.556Z,6.30
2019-02-23T08:43:49.239Z,6.51
2019-02-23T08:48:51.903Z,6.69
2019-02-23T08:53:54.583Z,6.75
2019-02-23T08:58:57.255Z,6.93
2019-02-23T09:03:59.928Z,7.02
2019-02-23T09:09:03.935Z,7.02
2019-02-23T09:14:06.634Z,7.08
2019-02-23T09:19:09.319Z,7.38
2019-02-23T09:24:12.012Z,7.61
2019-02-23T09:29:14.708Z,7.84
2019-02-23T09:34:17.399Z,7.66
2019-02-23T09:39:20.060Z,7.77
2019-02-23T09:44:22.726Z,8.23
2019-02-23T09:49:25.412Z,8.35
2019-02-23T09:54:30.560Z,8.43
2019-02-23T09:59:32.699Z,8.55
2019-02-23T10:04:35.401Z,8.80
2019-02-23T10:09:38.065Z,9.18
2019-02-23T10:14:40.739Z,9.48
2019-02-23T10:19:43.433Z,9.64
2019-02-23T10:24:46.113Z,9.78
2019-02-23T10:29:48.859Z,9.86
2019-02-23T10:34:51.554Z,9.82
2019-02-23T10:39:54.223Z,9.89
2019-02-23T10:44:56.890Z,9.83
2019-02-23T10:49:59.553Z,9.76
2019-02-23T10:55:02.358Z,9.82
2019-02-23T11:00:13.499Z,9.97
2019-02-23T11:05:16.650Z,10.19
2019-02-23T11:10:19.734Z,10.37
2019-02-23T11:15:22.733Z,10.64
2019-02-23T11:20:25.512Z,10.93
2019-02-23T11:25:28.252Z,11.02
2019-02-23T11:30:30.959Z,10.80
2019-02-23T11:35:33.679Z,10.77
2019-02-23T11:40:36.362Z,10.87
2019-02-23T11:45:39.056Z,11.14
2019-02-23T11:50:41.904Z,11.43
2019-02-23T12:06:06.415Z,11.44
2019-02-23T12:11:09.092Z,11.71
2019-02-23T12:16:11.778Z,11.66
2019-02-23T12:21:14.457Z,11.70
2019-02-23T12:26:17.273Z,11.62
2019-02-23T12:31:19.953Z,11.67
2019-02-23T12:36:22.623Z,11.49
2019-02-23T12:41:25.306Z,11.48
2019-02-23T12:46:28.103Z,11.51
2019-02-23T12:51:30.822Z,11.44
2019-02-23T12:56:33.647Z,11.65
2019-02-23T13:01:37.871Z,11.59
2019-02-23T13:06:40.639Z,11.73
2019-02-23T13:11:58.090Z,11.93
2019-02-23T13:17:20.617Z,12.08
2019-02-23T13:23:48.656Z,11.99
2019-02-23T13:29:24.870Z,12.13
2019-02-23T13:35:16.519Z,11.93
2019-02-23T13:41:15.834Z,11.93
2019-02-23T13:46:50.573Z,12.06
2019-02-23T13:53:08.613Z,12.35
2019-02-23T13:58:32.107Z,12.42
2019-02-23T14:04:14.865Z,12.35
2019-02-23T14:10:29.940Z,12.22
2019-02-23T14:16:15.456Z,12.10
2019-02-23T14:22:37.527Z,12.06
2019-02-23T14:28:52.580Z,12.13
2019-02-23T14:34:56.816Z,12.16
2019-02-23T14:40:47.566Z,12.25
2019-02-23T14:47:06.414Z,12.33
2019-02-23T14:53:17.786Z,12.39
2019-02-23T14:58:35.357Z,12.57
2019-02-23T15:04:23.565Z,12.44
2019-02-23T15:09:59.537Z,12.28
2019-02-23T15:16:17.186Z,12.39
2019-02-23T15:22:15.981Z,12.30
2019-02-23T15:28:07.446Z,12.32
2019-02-23T15:34:01.336Z,12.43
2019-02-23T15:40:11.589Z,12.44
2019-02-23T15:46:03.972Z,12.55
2019-02-23T15:51:06.875Z,12.69
2019-02-23T15:56:09.613Z,12.79
2019-02-23T16:01:12.295Z,12.89
2019-02-23T16:06:14.990Z,12.95
2019-02-23T16:11:17.666Z,12.98
2019-02-23T16:16:20.382Z,12.78
2019-02-23T16:21:23.065Z,12.67
2019-02-23T16:26:25.785Z,12.47
2019-02-23T16:31:28.482Z,12.36
2019-02-23T16:36:31.296Z,12.32
2019-02-23T16:41:34.023Z,12.06
2019-02-23T16:46:36.797Z,11.86
2019-02-23T16:51:39.466Z,11.64
2019-02-23T16:56:42.154Z,11.35
2019-02-23T17:01:44.827Z,11.11
2019-02-23T17:06:47.521Z,11.00
2019-02-23T17:11:50.192Z,10.86
2019-02-23T17:16:52.871Z,10.76
2019-02-23T17:21:55.544Z,10.64
2019-02-23T17:26:58.280Z,10.49
2019-02-23T17:32:00.953Z,10.38
2019-02-23T17:37:03.627Z,10.26
2019-02-23T17:42:06.302Z,10.10
2019-02-23T17:47:09.020Z,10.20
2019-02-23T17:52:11.738Z,10.21
2019-02-23T17:57:14.709Z,9.93
2019-02-23T18:02:17.623Z,9.81
2019-02-23T18:07:20.336Z,9.68
2019-02-23T18:12:23.764Z,9.46
2019-02-23T18:17:26.453Z,9.43
2019-02-23T18:22:29.133Z,9.43
2019-02-23T18:27:31.859Z,9.26
2019-02-23T18:32:34.567Z,9.12
2019-02-23T18:42:48.190Z,8.96
2019-02-23T18:47:50.857Z,8.94
2019-02-23T18:52:53.718Z,8.97
2019-02-23T18:57:56.470Z,8.94
2019-02-23T19:02:59.176Z,8.79
2019-02-23T19:08:01.943Z,8.62
2019-02-23T19:13:04.675Z,8.48
2019-02-23T19:18:07.838Z,8.49
2019-02-23T19:23:10.602Z,8.50
2019-02-23T19:28:13.507Z,8.46
2019-02-23T19:33:16.304Z,8.24
2019-02-23T19:38:19.072Z,8.12
2019-02-23T19:43:21.775Z,8.13
2019-02-23T19:48:24.458Z,8.01
2019-02-23T19:53:27.221Z,7.86
2019-02-23T19:58:29.911Z,7.80
2019-02-23T20:03:32.633Z,7.82
2019-02-23T20:08:35.467Z,7.78
2019-02-23T20:13:38.203Z,7.81
2019-02-23T20:18:40.899Z,7.73
2019-02-23T20:23:43.594Z,7.59
2019-02-23T20:28:46.324Z,7.64
2019-02-23T20:33:49.026Z,7.46
2019-02-23T20:38:51.722Z,7.49
2019-02-23T20:43:54.411Z,7.35
2019-02-23T20:48:57.145Z,7.26
2019-02-23T20:53:59.850Z,7.25
2019-02-23T20:59:02.674Z,7.23
2019-02-23T21:09:11.691Z,6.98
2019-02-23T21:14:14.386Z,7.02
2019-02-23T21:19:17.145Z,6.92
2019-02-23T21:24:19.845Z,6.92
2019-02-23T21:29:22.619Z,6.88
2019-02-23T21:34:25.310Z,6.68
2019-02-23T21:39:28.055Z,6.70
2019-02-23T21:44:30.750Z,6.80
2019-02-23T21:49:33.502Z,6.80
2019-02-23T21:54:36.232Z,6.83
2019-02-23T21:59:41.552Z,6.87
2019-02-23T22:04:46.657Z,6.88
2019-02-23T22:09:49.710Z,6.84
2019-02-23T22:14:52.621Z,6.77
2019-02-23T22:19:55.637Z,6.66
2019-02-23T22:24:58.489Z,6.58
2019-02-23T22:30:01.454Z,6.49
2019-02-23T22:35:04.475Z,6.49
2019-02-23T22:40:07.155Z,6.40
2019-02-23T22:45:10.147Z,6.11
2019-02-23T22:50:12.962Z,6.08
2019-02-23T22:55:16.061Z,6.11
2019-02-23T23:07:05.651Z,6.00
2019-02-23T23:12:09.560Z,6.08
2019-02-23T23:18:12.075Z,6.07
2019-02-23T23:22:33.316Z,6.02
2019-02-23T23:27:36.421Z,6.04
2019-02-23T23:32:41.831Z,6.03
2019-02-23T23:37:44.871Z,6.02
2019-02-23T23:42:47.703Z,6.02
2019-02-23T23:47:50.565Z,6.06
2019-02-23T23:52:53.320Z,6.15
2019-02-23T23:57:58.613Z,6.17
